Zenith Leader — 2ACU6 — position and weather

sailwx.info

Track history (hours):
 
Tides and Currents Weather Stations Pressure Air Temp Water Temp Dewpoint Dewpoint Depression Visibility Wind Speed Wind Dir Waves Ship Positions

Zenith Leader

Last reported at 2017-Jan-16 13:26 UTC. Time now 2017-Jan-19 02:22 UTC.
Position N 41°38' W 128°17'.

Length 200 m; draft 7.7 m.

Type: Cargo ship. MMSI: 235058697.

Date/timePositionNaut miles runAvg speedWind from/ knotsBaromVisibWave heightAir tempDewpointWater temp
2017-Jan-16 13:26N 41°38' W 128°17'1618.1
2017-Jan-16 12:33N 41°28' W 128°01'1817.6
2017-Jan-16 11:33N 41°16' W 127°44'1717.4
2017-Jan-16 10:33N 41°04' W 127°27'1817.6
2017-Jan-16 09:33N 40°52' W 127°09'19818.0
2017-Jan-15 22:33N 38°38' W 123°58'1918.8
2017-Jan-15 21:33N 38°26' W 123°41'1918.9
2017-Jan-15 20:33N 38°13' W 123°24'1919.0
2017-Jan-15 19:33N 37°58' W 123°08'1818.3
2017-Jan-15 18:34N 37°49' W 122°48'1211.9
2017-Jan-15 17:33N 37°48' W 122°33'9 9.2
2017-Jan-15 16:33N 37°47' W 122°21'0 0.1
2017-Jan-15 15:32N 37°47' W 122°21'0 0.0
2017-Jan-15 14:32N 37°47' W 122°21'0 0.0
2017-Jan-15 13:29N 37°47' W 122°21'1 1.3
2017-Jan-15 12:33N 37°46' W 122°22'1 1.2
2017-Jan-15 11:31N 37°45' W 122°23'0 0.0
2017-Jan-15 10:31N 37°45' W 122°23'0 0.0
2017-Jan-15 09:31N 37°45' W 122°23'0 0.0
2017-Jan-15 08:31N 37°45' W 122°23'0 0.0
2017-Jan-15 07:31N 37°45' W 122°23'0 0.0
2017-Jan-15 06:31N 37°45' W 122°23'0 0.0
2017-Jan-15 05:31N 37°45' W 122°23'0 0.0
2017-Jan-15 04:31N 37°45' W 122°23'0 0.0
2017-Jan-15 03:31N 37°45' W 122°23'0 0.0
2017-Jan-15 02:31N 37°45' W 122°23'0 0.0
2017-Jan-15 01:31N 37°45' W 122°23'0 0.0
2017-Jan-15 00:31N 37°45' W 122°23'0 0.0
2017-Jan-14 23:31N 37°45' W 122°23'0 0.0
2017-Jan-14 22:31N 37°45' W 122°23'0 0.0
2017-Jan-14 21:31N 37°45' W 122°23'0 0.0
2017-Jan-14 20:31N 37°45' W 122°23'0 0.0
2017-Jan-14 19:31N 37°45' W 122°23'0 0.0
2017-Jan-14 18:31N 37°45' W 122°23'0 0.0
2017-Jan-14 17:31N 37°45' W 122°23'0 0.0
2017-Jan-14 16:31N 37°45' W 122°23'0 0.0
2017-Jan-14 15:31N 37°45' W 122°23'0 0.0
2017-Jan-14 14:31N 37°45' W 122°23'0 0.0
2017-Jan-14 13:31N 37°45' W 122°23'0 0.0
2017-Jan-14 12:31N 37°45' W 122°23'0 0.0
2017-Jan-14 11:31N 37°45' W 122°23'0 0.0
2017-Jan-14 10:31N 37°45' W 122°23'0 0.0
2017-Jan-14 09:31N 37°45' W 122°23'0 0.0
2017-Jan-14 08:31N 37°45' W 122°23'0 0.0
2017-Jan-14 07:31N 37°45' W 122°23'0 0.0
2017-Jan-14 06:31N 37°45' W 122°23'0 0.0
2017-Jan-14 05:31N 37°45' W 122°23'0 0.0
2017-Jan-14 04:31N 37°45' W 122°23'0 0.0
2017-Jan-14 03:31N 37°45' W 122°23'0 0.0
2017-Jan-13 23:31N 37°45' W 122°23'0 0.0
2017-Jan-13 22:31N 37°45' W 122°23'0 0.0
2017-Jan-13 21:31N 37°45' W 122°23'0 0.0
2017-Jan-13 20:31N 37°45' W 122°23'0 0.0
2017-Jan-13 19:31N 37°45' W 122°23'0 0.0
2017-Jan-13 18:31N 37°45' W 122°23'0 0.0
2017-Jan-13 17:31N 37°45' W 122°23'0 0.0
2017-Jan-13 16:31N 37°45' W 122°23'0 0.0
2017-Jan-13 15:31N 37°45' W 122°23'0 0.0
2017-Jan-13 14:31N 37°45' W 122°23'4 4.2
2017-Jan-13 13:33N 37°49' W 122°24'1010.3
2017-Jan-13 12:33N 37°46' W 122°37'7 6.9
2017-Jan-13 11:33N 37°43' W 122°44'8 8.3
2017-Jan-13 10:33N 37°38' W 122°53'8 8.4
2017-Jan-13 09:33N 37°33' W 123°01'7 6.9
2017-Jan-13 08:33N 37°29' W 123°09'8 8.2
2017-Jan-13 07:33N 37°21' W 123°10'45 4.4
2017-Jan-12 21:25N 36°39' W 122°52'910.8
2017-Jan-12 20:33N 36°30' W 122°47'1111.1
2017-Jan-12 19:33N 36°20' W 122°41'1111.1
2017-Jan-12 18:33N 36°11' W 122°34'1111.0
2017-Jan-12 17:33N 36°01' W 122°26'1110.8
2017-Jan-12 16:33N 35°53' W 122°18'1110.6
2017-Jan-12 15:33N 35°45' W 122°10'1110.7
2017-Jan-12 14:33N 35°37' W 122°02'1110.6
2017-Jan-12 13:33N 35°28' W 121°54'1110.6
2017-Jan-12 12:33N 35°20' W 121°45'  
2017-Jan-08 20:05N 33°51' W 118°46'4 7.4
2017-Jan-08 19:33N 33°49' W 118°42'9 9.1
2017-Jan-08 18:33N 33°44' W 118°33'9 9.1
2017-Jan-08 17:33N 33°40' W 118°23'9 8.8
2017-Jan-08 16:33N 33°37' W 118°13'8 7.6
2017-Jan-08 15:33N 33°31' W 118°08'8 8.5
2017-Jan-08 14:33N 33°23' W 118°04'9 9.1
2017-Jan-08 13:33N 33°14' W 118°00'9 9.2
2017-Jan-08 12:33N 33°06' W 117°56'9 9.1
2017-Jan-08 11:33N 32°58' W 117°51'9 9.3
2017-Jan-08 10:33N 32°49' W 117°46'9 9.5
2017-Jan-08 09:33N 32°41' W 117°42'1211.8
2017-Jan-08 08:33N 32°30' W 117°36'1312.7
2017-Jan-08 07:33N 32°18' W 117°32'1212.4
2017-Jan-08 06:33N 32°06' W 117°27'1212.1
2017-Jan-08 05:33N 31°54' W 117°23'1211.8
2017-Jan-08 04:33N 31°43' W 117°19'1212.2
2017-Jan-08 03:33N 31°31' W 117°15'1212.4
2017-Jan-08 02:33N 31°19' W 117°11'1312.6
2017-Jan-08 01:33N 31°07' W 117°06'1212.4
2017-Jan-08 00:33N 30°56' W 117°02'  
Track history (hours):
 
Tides and Currents Weather Stations Pressure Air Temp Water Temp Dewpoint Dewpoint Depression Visibility Wind Speed Wind Dir Waves Ship Positions

Zenith Leader

Last reported at 2017-Jan-16 13:26 UTC. Time now 2017-Jan-19 02:22 UTC.
Position N 41°38' W 128°17'.

Length 200 m; draft 7.7 m.

Type: Cargo ship. MMSI: 235058697.

Date/timePositionNaut miles runAvg speedWind from/ knotsBaromVisibWave heightAir tempDewpointWater temp
2017-Jan-16 13:26N 41°38' W 128°17'1618.1
2017-Jan-16 12:33N 41°28' W 128°01'1817.6
2017-Jan-16 11:33N 41°16' W 127°44'1717.4
2017-Jan-16 10:33N 41°04' W 127°27'1817.6
2017-Jan-16 09:33N 40°52' W 127°09'19818.0
2017-Jan-15 22:33N 38°38' W 123°58'1918.8
2017-Jan-15 21:33N 38°26' W 123°41'1918.9
2017-Jan-15 20:33N 38°13' W 123°24'1919.0
2017-Jan-15 19:33N 37°58' W 123°08'1818.3
2017-Jan-15 18:34N 37°49' W 122°48'1211.9
2017-Jan-15 17:33N 37°48' W 122°33'9 9.2
2017-Jan-15 16:33N 37°47' W 122°21'0 0.1
2017-Jan-15 15:32N 37°47' W 122°21'0 0.0
2017-Jan-15 14:32N 37°47' W 122°21'0 0.0
2017-Jan-15 13:29N 37°47' W 122°21'1 1.3
2017-Jan-15 12:33N 37°46' W 122°22'1 1.2
2017-Jan-15 11:31N 37°45' W 122°23'0 0.0
2017-Jan-15 10:31N 37°45' W 122°23'0 0.0
2017-Jan-15 09:31N 37°45' W 122°23'0 0.0
2017-Jan-15 08:31N 37°45' W 122°23'0 0.0
2017-Jan-15 07:31N 37°45' W 122°23'0 0.0
2017-Jan-15 06:31N 37°45' W 122°23'0 0.0
2017-Jan-15 05:31N 37°45' W 122°23'0 0.0
2017-Jan-15 04:31N 37°45' W 122°23'0 0.0
2017-Jan-15 03:31N 37°45' W 122°23'0 0.0
2017-Jan-15 02:31N 37°45' W 122°23'0 0.0
2017-Jan-15 01:31N 37°45' W 122°23'0 0.0
2017-Jan-15 00:31N 37°45' W 122°23'0 0.0
2017-Jan-14 23:31N 37°45' W 122°23'0 0.0
2017-Jan-14 22:31N 37°45' W 122°23'0 0.0
2017-Jan-14 21:31N 37°45' W 122°23'0 0.0
2017-Jan-14 20:31N 37°45' W 122°23'0 0.0
2017-Jan-14 19:31N 37°45' W 122°23'0 0.0
2017-Jan-14 18:31N 37°45' W 122°23'0 0.0
2017-Jan-14 17:31N 37°45' W 122°23'0 0.0
2017-Jan-14 16:31N 37°45' W 122°23'0 0.0
2017-Jan-14 15:31N 37°45' W 122°23'0 0.0
2017-Jan-14 14:31N 37°45' W 122°23'0 0.0
2017-Jan-14 13:31N 37°45' W 122°23'0 0.0
2017-Jan-14 12:31N 37°45' W 122°23'0 0.0
2017-Jan-14 11:31N 37°45' W 122°23'0 0.0
2017-Jan-14 10:31N 37°45' W 122°23'0 0.0
2017-Jan-14 09:31N 37°45' W 122°23'0 0.0
2017-Jan-14 08:31N 37°45' W 122°23'0 0.0
2017-Jan-14 07:31N 37°45' W 122°23'0 0.0
2017-Jan-14 06:31N 37°45' W 122°23'0 0.0
2017-Jan-14 05:31N 37°45' W 122°23'0 0.0
2017-Jan-14 04:31N 37°45' W 122°23'0 0.0
2017-Jan-14 03:31N 37°45' W 122°23'0 0.0
2017-Jan-13 23:31N 37°45' W 122°23'0 0.0
2017-Jan-13 22:31N 37°45' W 122°23'0 0.0
2017-Jan-13 21:31N 37°45' W 122°23'0 0.0
2017-Jan-13 20:31N 37°45' W 122°23'0 0.0
2017-Jan-13 19:31N 37°45' W 122°23'0 0.0
2017-Jan-13 18:31N 37°45' W 122°23'0 0.0
2017-Jan-13 17:31N 37°45' W 122°23'0 0.0
2017-Jan-13 16:31N 37°45' W 122°23'0 0.0
2017-Jan-13 15:31N 37°45' W 122°23'0 0.0
2017-Jan-13 14:31N 37°45' W 122°23'4 4.2
2017-Jan-13 13:33N 37°49' W 122°24'1010.3
2017-Jan-13 12:33N 37°46' W 122°37'7 6.9
2017-Jan-13 11:33N 37°43' W 122°44'8 8.3
2017-Jan-13 10:33N 37°38' W 122°53'8 8.4
2017-Jan-13 09:33N 37°33' W 123°01'7 6.9
2017-Jan-13 08:33N 37°29' W 123°09'8 8.2
2017-Jan-13 07:33N 37°21' W 123°10'45 4.4
2017-Jan-12 21:25N 36°39' W 122°52'910.8
2017-Jan-12 20:33N 36°30' W 122°47'1111.1
2017-Jan-12 19:33N 36°20' W 122°41'1111.1
2017-Jan-12 18:33N 36°11' W 122°34'1111.0
2017-Jan-12 17:33N 36°01' W 122°26'1110.8
2017-Jan-12 16:33N 35°53' W 122°18'1110.6
2017-Jan-12 15:33N 35°45' W 122°10'1110.7
2017-Jan-12 14:33N 35°37' W 122°02'1110.6
2017-Jan-12 13:33N 35°28' W 121°54'1110.6
2017-Jan-12 12:33N 35°20' W 121°45'  
2017-Jan-08 20:05N 33°51' W 118°46'4 7.4
2017-Jan-08 19:33N 33°49' W 118°42'9 9.1
2017-Jan-08 18:33N 33°44' W 118°33'9 9.1
2017-Jan-08 17:33N 33°40' W 118°23'9 8.8
2017-Jan-08 16:33N 33°37' W 118°13'8 7.6
2017-Jan-08 15:33N 33°31' W 118°08'8 8.5
2017-Jan-08 14:33N 33°23' W 118°04'9 9.1
2017-Jan-08 13:33N 33°14' W 118°00'9 9.2
2017-Jan-08 12:33N 33°06' W 117°56'9 9.1
2017-Jan-08 11:33N 32°58' W 117°51'9 9.3
2017-Jan-08 10:33N 32°49' W 117°46'9 9.5
2017-Jan-08 09:33N 32°41' W 117°42'1211.8
2017-Jan-08 08:33N 32°30' W 117°36'1312.7
2017-Jan-08 07:33N 32°18' W 117°32'1212.4
2017-Jan-08 06:33N 32°06' W 117°27'1212.1
2017-Jan-08 05:33N 31°54' W 117°23'1211.8
2017-Jan-08 04:33N 31°43' W 117°19'1212.2
2017-Jan-08 03:33N 31°31' W 117°15'1212.4
2017-Jan-08 02:33N 31°19' W 117°11'1312.6
2017-Jan-08 01:33N 31°07' W 117°06'1212.4
2017-Jan-08 00:33N 30°56' W 117°02'  

Dump ship's entire track history